sensor_id;sensor_type;location;lat;lon;timestamp;pressure;altitude;pressure_sealevel;temperature;humidity
56270;BME280;42176;43.240;27.880;2023-02-22T00:01:15;99862.19;;;10.60;54.94
56270;BME280;42176;43.240;27.880;2023-02-22T00:03:49;99859.66;;;10.56;55.80
56270;BME280;42176;43.240;27.880;2023-02-22T00:06:17;99868.53;;;10.55;56.58
56270;BME280;42176;43.240;27.880;2023-02-22T00:08:46;99871.38;;;10.45;56.37
56270;BME280;42176;43.240;27.880;2023-02-22T00:11:12;99867.16;;;10.38;57.52
56270;BME280;42176;43.240;27.880;2023-02-22T00:13:38;99868.19;;;10.31;55.84
56270;BME280;42176;43.240;27.880;2023-02-22T00:16:08;99871.00;;;10.25;57.37
56270;BME280;42176;43.240;27.880;2023-02-22T00:18:37;99874.63;;;10.20;58.42
56270;BME280;42176;43.240;27.880;2023-02-22T00:21:03;99871.09;;;10.21;57.55
56270;BME280;42176;43.240;27.880;2023-02-22T00:23:30;99867.59;;;10.19;58.12
56270;BME280;42176;43.240;27.880;2023-02-22T00:25:58;99868.56;;;10.17;58.76
56270;BME280;42176;43.240;27.880;2023-02-22T00:28:23;99869.34;;;10.20;59.51
56270;BME280;42176;43.240;27.880;2023-02-22T00:30:50;99875.50;;;10.21;58.30
56270;BME280;42176;43.240;27.880;2023-02-22T00:33:15;99870.25;;;10.19;58.91
56270;BME280;42176;43.240;27.880;2023-02-22T00:35:43;99868.50;;;10.18;58.62
56270;BME280;42176;43.240;27.880;2023-02-22T00:38:13;99864.13;;;10.17;57.11
56270;BME280;42176;43.240;27.880;2023-02-22T00:40:39;99870.47;;;10.10;58.77
56270;BME280;42176;43.240;27.880;2023-02-22T00:43:05;99864.56;;;9.99;58.04
56270;BME280;42176;43.240;27.880;2023-02-22T00:45:32;99872.59;;;9.96;60.01
56270;BME280;42176;43.240;27.880;2023-02-22T00:47:59;99886.75;;;9.95;62.11
56270;BME280;42176;43.240;27.880;2023-02-22T00:50:26;99881.34;;;9.98;62.80
56270;BME280;42176;43.240;27.880;2023-02-22T00:52:53;99876.88;;;10.00;59.73
56270;BME280;42176;43.240;27.880;2023-02-22T00:55:27;99882.13;;;10.03;59.62
56270;BME280;42176;43.240;27.880;2023-02-22T00:57:53;99882.19;;;10.00;60.60
56270;BME280;42176;43.240;27.880;2023-02-22T01:00:27;99872.59;;;9.96;60.80
56270;BME280;42176;43.240;27.880;2023-02-22T01:02:53;99877.06;;;9.94;60.58
56270;BME280;42176;43.240;27.880;2023-02-22T01:05:23;99878.84;;;9.92;60.88
56270;BME280;42176;43.240;27.880;2023-02-22T01:07:49;99884.09;;;9.95;59.62
56270;BME280;42176;43.240;27.880;2023-02-22T01:10:18;99874.28;;;9.98;58.79
56270;BME280;42176;43.240;27.880;2023-02-22T01:12:47;99882.19;;;10.00;58.23
56270;BME280;42176;43.240;27.880;2023-02-22T01:15:13;99873.41;;;9.98;57.71
56270;BME280;42176;43.240;27.880;2023-02-22T01:17:39;99872.25;;;10.10;58.04
56270;BME280;42176;43.240;27.880;2023-02-22T01:20:09;99874.78;;;10.14;57.99
56270;BME280;42176;43.240;27.880;2023-02-22T01:22:40;99862.53;;;10.10;57.83
56270;BME280;42176;43.240;27.880;2023-02-22T01:25:07;99852.91;;;10.06;57.86
56270;BME280;42176;43.240;27.880;2023-02-22T01:27:34;99863.41;;;10.11;58.39
56270;BME280;42176;43.240;27.880;2023-02-22T01:30:00;99867.84;;;10.10;58.68
56270;BME280;42176;43.240;27.880;2023-02-22T01:32:26;99869.66;;;10.08;58.94
56270;BME280;42176;43.240;27.880;2023-02-22T01:34:52;99848.66;;;9.99;58.88
56270;BME280;42176;43.240;27.880;2023-02-22T01:37:18;99870.56;;;10.05;59.92
56270;BME280;42176;43.240;27.880;2023-02-22T01:39:44;99862.59;;;10.07;60.13
56270;BME280;42176;43.240;27.880;2023-02-22T01:42:09;99848.75;;;9.96;59.52
56270;BME280;42176;43.240;27.880;2023-02-22T01:44:37;99866.16;;;10.06;59.08
56270;BME280;42176;43.240;27.880;2023-02-22T01:47:05;99857.31;;;10.07;59.44
56270;BME280;42176;43.240;27.880;2023-02-22T01:49:50;99868.03;;;10.01;60.20
56270;BME280;42176;43.240;27.880;2023-02-22T01:52:19;99866.38;;;9.97;60.29
56270;BME280;42176;43.240;27.880;2023-02-22T01:54:49;99861.06;;;9.97;60.10
56270;BME280;42176;43.240;27.880;2023-02-22T01:57:30;99869.25;;;8.57;65.71
56270;BME280;42176;43.240;27.880;2023-02-22T02:00:00;99871.13;;;7.33;74.24
56270;BME280;42176;43.240;27.880;2023-02-22T02:02:27;99867.34;;;7.53;75.93
56270;BME280;42176;43.240;27.880;2023-02-22T02:04:55;99870.56;;;7.76;75.59
56270;BME280;42176;43.240;27.880;2023-02-22T02:07:22;99870.16;;;8.01;74.27
56270;BME280;42176;43.240;27.880;2023-02-22T02:09:55;99872.38;;;8.28;73.28
56270;BME280;42176;43.240;27.880;2023-02-22T02:12:22;99865.81;;;8.53;71.78
56270;BME280;42176;43.240;27.880;2023-02-22T02:14:47;99871.56;;;8.76;70.22
56270;BME280;42176;43.240;27.880;2023-02-22T02:17:16;99866.78;;;8.96;69.55
56270;BME280;42176;43.240;27.880;2023-02-22T02:39:27;99876.06;;;9.98;63.39
56270;BME280;42176;43.240;27.880;2023-02-22T02:41:54;99882.13;;;10.03;62.86
56270;BME280;42176;43.240;27.880;2023-02-22T02:44:29;99885.53;;;10.08;62.61
56270;BME280;42176;43.240;27.880;2023-02-22T02:47:05;99890.66;;;10.16;62.16
56270;BME280;42176;43.240;27.880;2023-02-22T02:49:39;99890.53;;;10.20;62.13
56270;BME280;42176;43.240;27.880;2023-02-22T02:52:09;99885.22;;;10.20;62.38
56270;BME280;42176;43.240;27.880;2023-02-22T02:54:37;99883.25;;;10.29;61.94
56270;BME280;42176;43.240;27.880;2023-02-22T02:57:03;99890.97;;;8.21;71.00
56270;BME280;42176;43.240;27.880;2023-02-22T02:59:35;99884.78;;;7.63;77.36
56270;BME280;42176;43.240;27.880;2023-02-22T03:16:29;99899.84;;;8.16;76.37
56270;BME280;42176;43.240;27.880;2023-02-22T03:24:30;99900.75;;;8.15;76.88
56270;BME280;42176;43.240;27.880;2023-02-22T03:27:11;99909.13;;;8.42;74.61
56270;BME280;42176;43.240;27.880;2023-02-22T03:29:41;99910.63;;;8.58;73.49
56270;BME280;42176;43.240;27.880;2023-02-22T03:32:11;99900.75;;;8.70;72.08
56270;BME280;42176;43.240;27.880;2023-02-22T03:34:49;99908.97;;;9.03;70.86
56270;BME280;42176;43.240;27.880;2023-02-22T03:37:20;99910.53;;;9.13;69.56
56270;BME280;42176;43.240;27.880;2023-02-22T03:39:49;99908.66;;;9.18;68.72
56270;BME280;42176;43.240;27.880;2023-02-22T03:42:20;99919.06;;;9.27;68.26
56270;BME280;42176;43.240;27.880;2023-02-22T03:44:48;99917.16;;;9.34;67.69
56270;BME280;42176;43.240;27.880;2023-02-22T03:47:21;99913.50;;;9.40;67.32
56270;BME280;42176;43.240;27.880;2023-02-22T03:49:50;99922.28;;;9.42;66.75
56270;BME280;42176;43.240;27.880;2023-02-22T03:52:19;99914.34;;;9.42;66.65
56270;BME280;42176;43.240;27.880;2023-02-22T03:54:48;99916.13;;;9.41;66.94
56270;BME280;42176;43.240;27.880;2023-02-22T03:57:31;99920.59;;;9.38;66.87
56270;BME280;42176;43.240;27.880;2023-02-22T03:59:59;99915.31;;;9.38;67.35
56270;BME280;42176;43.240;27.880;2023-02-22T04:02:24;99918.06;;;9.33;67.83
56270;BME280;42176;43.240;27.880;2023-02-22T04:04:50;99908.41;;;9.31;67.78
56270;BME280;42176;43.240;27.880;2023-02-22T04:07:16;99907.56;;;9.28;67.16
56270;BME280;42176;43.240;27.880;2023-02-22T04:09:41;99910.22;;;9.28;67.32
56270;BME280;42176;43.240;27.880;2023-02-22T04:12:07;99901.38;;;9.29;67.08
56270;BME280;42176;43.240;27.880;2023-02-22T04:14:33;99903.06;;;9.34;66.82
56270;BME280;42176;43.240;27.880;2023-02-22T04:16:58;99903.75;;;9.42;66.45
56270;BME280;42176;43.240;27.880;2023-02-22T04:19:24;99893.13;;;9.45;65.90
56270;BME280;42176;43.240;27.880;2023-02-22T04:21:50;99893.75;;;9.56;65.64
56270;BME280;42176;43.240;27.880;2023-02-22T04:24:15;99902.41;;;9.65;65.02
56270;BME280;42176;43.240;27.880;2023-02-22T04:26:41;99890.78;;;9.72;64.42
56270;BME280;42176;43.240;27.880;2023-02-22T04:29:06;99898.59;;;9.78;63.79
56270;BME280;42176;43.240;27.880;2023-02-22T04:31:32;99900.16;;;9.85;63.44
56270;BME280;42176;43.240;27.880;2023-02-22T04:33:59;99899.25;;;9.88;62.96
56270;BME280;42176;43.240;27.880;2023-02-22T04:36:25;99898.22;;;9.94;62.84
56270;BME280;42176;43.240;27.880;2023-02-22T04:38:51;99901.72;;;9.96;62.71
56270;BME280;42176;43.240;27.880;2023-02-22T04:41:17;99907.81;;;9.98;62.45
56270;BME280;42176;43.240;27.880;2023-02-22T04:43:44;99907.81;;;9.98;62.22
56270;BME280;42176;43.240;27.880;2023-02-22T04:46:10;99913.09;;;9.99;61.92
56270;BME280;42176;43.240;27.880;2023-02-22T04:48:36;99910.47;;;9.98;61.93
56270;BME280;42176;43.240;27.880;2023-02-22T04:51:01;99913.97;;;10.00;62.14
56270;BME280;42176;43.240;27.880;2023-02-22T04:53:27;99917.44;;;10.02;61.69
56270;BME280;42176;43.240;27.880;2023-02-22T04:55:53;99924.56;;;10.00;61.08
56270;BME280;42176;43.240;27.880;2023-02-22T04:58:18;99911.56;;;9.89;61.11
56270;BME280;42176;43.240;27.880;2023-02-22T05:00:44;99920.50;;;9.85;61.28
56270;BME280;42176;43.240;27.880;2023-02-22T05:03:09;99926.88;;;9.76;61.62
56270;BME280;42176;43.240;27.880;2023-02-22T05:05:35;99926.03;;;9.74;61.81
56270;BME280;42176;43.240;27.880;2023-02-22T05:08:00;99931.38;;;9.72;61.78
56270;BME280;42176;43.240;27.880;2023-02-22T05:10:26;99931.44;;;9.68;62.07
56270;BME280;42176;43.240;27.880;2023-02-22T05:12:51;99928.88;;;9.65;62.09
56270;BME280;42176;43.240;27.880;2023-02-22T05:15:18;99934.25;;;9.60;62.32
56270;BME280;42176;43.240;27.880;2023-02-22T05:17:45;99923.81;;;9.52;62.24
56270;BME280;42176;43.240;27.880;2023-02-22T05:20:22;99942.22;;;9.58;62.42
56270;BME280;42176;43.240;27.880;2023-02-22T05:22:48;99953.72;;;9.57;62.79
56270;BME280;42176;43.240;27.880;2023-02-22T05:25:14;99948.38;;;9.60;62.61
56270;BME280;42176;43.240;27.880;2023-02-22T05:27:40;99941.38;;;9.56;62.75
56270;BME280;42176;43.240;27.880;2023-02-22T05:30:06;99964.19;;;9.64;62.69
56270;BME280;42176;43.240;27.880;2023-02-22T05:32:33;99963.28;;;9.65;62.81
56270;BME280;42176;43.240;27.880;2023-02-22T05:34:59;99964.09;;;9.67;62.88
56270;BME280;42176;43.240;27.880;2023-02-22T05:37:24;99968.44;;;9.71;62.92
56270;BME280;42176;43.240;27.880;2023-02-22T05:39:50;99968.41;;;9.72;62.91
56270;BME280;42176;43.240;27.880;2023-02-22T05:42:15;99979.66;;;9.82;63.47
56270;BME280;42176;43.240;27.880;2023-02-22T05:44:41;99982.56;;;10.51;61.15
56270;BME280;42176;43.240;27.880;2023-02-22T05:47:06;99976.16;;;11.91;55.52
56270;BME280;42176;43.240;27.880;2023-02-22T05:49:32;99974.09;;;13.10;51.83
56270;BME280;42176;43.240;27.880;2023-02-22T05:51:57;99973.72;;;14.18;48.57
56270;BME280;42176;43.240;27.880;2023-02-22T05:54:24;99977.16;;;15.09;46.84
56270;BME280;42176;43.240;27.880;2023-02-22T05:56:50;99986.81;;;15.92;43.87
56270;BME280;42176;43.240;27.880;2023-02-22T05:59:15;99982.00;;;16.74;41.98
56270;BME280;42176;43.240;27.880;2023-02-22T06:01:40;99987.06;;;17.50;40.27
56270;BME280;42176;43.240;27.880;2023-02-22T06:04:06;99992.41;;;18.18;38.91
56270;BME280;42176;43.240;27.880;2023-02-22T06:06:31;99991.78;;;18.91;37.41
56270;BME280;42176;43.240;27.880;2023-02-22T06:08:57;99994.06;;;19.73;35.88
56270;BME280;42176;43.240;27.880;2023-02-22T06:11:22;99986.53;;;20.36;34.79
56270;BME280;42176;43.240;27.880;2023-02-22T06:13:51;99992.19;;;20.59;33.84
56270;BME280;42176;43.240;27.880;2023-02-22T06:16:18;99987.69;;;20.59;33.41
56270;BME280;42176;43.240;27.880;2023-02-22T06:18:45;99998.72;;;21.75;32.52
56270;BME280;42176;43.240;27.880;2023-02-22T06:21:11;100005.72;;;22.28;31.17
56270;BME280;42176;43.240;27.880;2023-02-22T06:23:36;100002.44;;;22.98;30.60
56270;BME280;42176;43.240;27.880;2023-02-22T06:26:02;100009.28;;;23.73;29.43
56270;BME280;42176;43.240;27.880;2023-02-22T06:28:27;100002.81;;;24.54;27.81
56270;BME280;42176;43.240;27.880;2023-02-22T06:30:53;100005.59;;;25.07;26.97
56270;BME280;42176;43.240;27.880;2023-02-22T06:33:18;100001.75;;;25.43;26.67
56270;BME280;42176;43.240;27.880;2023-02-22T06:35:44;100008.25;;;26.13;26.32
56270;BME280;42176;43.240;27.880;2023-02-22T06:38:09;100006.13;;;26.87;25.54
56270;BME280;42176;43.240;27.880;2023-02-22T06:40:35;100011.25;;;27.30;24.53
56270;BME280;42176;43.240;27.880;2023-02-22T06:43:01;100007.41;;;27.80;24.19
56270;BME280;42176;43.240;27.880;2023-02-22T06:45:27;100010.91;;;28.38;23.47
56270;BME280;42176;43.240;27.880;2023-02-22T06:47:53;100005.44;;;28.84;22.92
56270;BME280;42176;43.240;27.880;2023-02-22T06:50:28;100006.53;;;29.27;21.62
56270;BME280;42176;43.240;27.880;2023-02-22T06:52:54;100007.50;;;29.71;21.60
56270;BME280;42176;43.240;27.880;2023-02-22T06:55:21;100003.66;;;30.16;19.96
56270;BME280;42176;43.240;27.880;2023-02-22T06:57:47;100006.13;;;30.36;20.53
56270;BME280;42176;43.240;27.880;2023-02-22T07:00:15;100008.44;;;30.57;20.08
56270;BME280;42176;43.240;27.880;2023-02-22T07:02:41;100002.50;;;31.03;19.98
56270;BME280;42176;43.240;27.880;2023-02-22T07:05:09;100001.59;;;30.61;19.42
56270;BME280;42176;43.240;27.880;2023-02-22T07:07:36;100001.38;;;30.03;19.64
56270;BME280;42176;43.240;27.880;2023-02-22T07:10:04;100011.72;;;30.26;20.16
56270;BME280;42176;43.240;27.880;2023-02-22T07:12:29;99996.84;;;30.20;19.70
56270;BME280;42176;43.240;27.880;2023-02-22T07:14:55;100007.16;;;30.35;20.29
56270;BME280;42176;43.240;27.880;2023-02-22T07:17:20;100009.81;;;30.18;20.24
56270;BME280;42176;43.240;27.880;2023-02-22T07:19:46;100005.44;;;30.42;20.33
56270;BME280;42176;43.240;27.880;2023-02-22T07:22:11;99997.34;;;30.83;19.45
56270;BME280;42176;43.240;27.880;2023-02-22T07:24:37;100010.88;;;31.02;19.46
56270;BME280;42176;43.240;27.880;2023-02-22T07:27:02;99979.25;;;31.16;18.75
56270;BME280;42176;43.240;27.880;2023-02-22T07:29:28;100011.34;;;30.72;19.39
56270;BME280;42176;43.240;27.880;2023-02-22T07:31:54;100006.31;;;29.47;20.19
56270;BME280;42176;43.240;27.880;2023-02-22T07:34:20;100005.66;;;28.72;21.25
56270;BME280;42176;43.240;27.880;2023-02-22T07:36:45;100001.63;;;27.55;21.67
56270;BME280;42176;43.240;27.880;2023-02-22T07:39:10;99993.16;;;27.68;21.98
56270;BME280;42176;43.240;27.880;2023-02-22T07:41:36;99999.31;;;27.70;21.89
56270;BME280;42176;43.240;27.880;2023-02-22T07:44:01;100000.06;;;27.53;22.32
56270;BME280;42176;43.240;27.880;2023-02-22T07:46:27;99999.47;;;27.59;22.24
56270;BME280;42176;43.240;27.880;2023-02-22T07:48:52;100007.50;;;27.60;22.14
56270;BME280;42176;43.240;27.880;2023-02-22T07:51:17;100006.13;;;27.07;22.37
56270;BME280;42176;43.240;27.880;2023-02-22T07:53:45;100011.78;;;26.45;23.44
56270;BME280;42176;43.240;27.880;2023-02-22T07:56:10;100012.13;;;26.91;22.75
56270;BME280;42176;43.240;27.880;2023-02-22T07:58:36;100002.81;;;27.13;22.50
56270;BME280;42176;43.240;27.880;2023-02-22T08:01:01;100005.34;;;27.54;22.22
56270;BME280;42176;43.240;27.880;2023-02-22T08:03:30;99988.66;;;28.42;21.60
56270;BME280;42176;43.240;27.880;2023-02-22T08:05:56;100012.44;;;29.41;20.62
56270;BME280;42176;43.240;27.880;2023-02-22T08:08:23;99994.75;;;29.80;20.26
56270;BME280;42176;43.240;27.880;2023-02-22T08:10:49;100011.06;;;30.32;19.81
56270;BME280;42176;43.240;27.880;2023-02-22T08:13:15;100001.47;;;29.93;19.40
56270;BME280;42176;43.240;27.880;2023-02-22T08:15:41;99999.03;;;29.56;19.96
56270;BME280;42176;43.240;27.880;2023-02-22T08:18:13;100003.25;;;29.06;20.06
56270;BME280;42176;43.240;27.880;2023-02-22T08:20:41;99999.09;;;29.38;20.22
56270;BME280;42176;43.240;27.880;2023-02-22T08:23:08;100002.75;;;29.28;20.30
56270;BME280;42176;43.240;27.880;2023-02-22T08:25:34;99996.22;;;29.66;19.84
56270;BME280;42176;43.240;27.880;2023-02-22T08:28:14;99999.63;;;28.51;20.57
56270;BME280;42176;43.240;27.880;2023-02-22T08:30:41;99999.50;;;27.29;22.01
56270;BME280;42176;43.240;27.880;2023-02-22T08:33:10;100000.38;;;27.10;22.08
56270;BME280;42176;43.240;27.880;2023-02-22T08:35:38;99991.03;;;26.44;23.08
56270;BME280;42176;43.240;27.880;2023-02-22T08:38:06;99994.53;;;26.25;23.19
56270;BME280;42176;43.240;27.880;2023-02-22T08:40:34;99991.63;;;25.45;24.31
56270;BME280;42176;43.240;27.880;2023-02-22T08:43:00;100001.28;;;24.84;24.81
56270;BME280;42176;43.240;27.880;2023-02-22T08:45:29;100000.69;;;24.13;25.59
56270;BME280;42176;43.240;27.880;2023-02-22T08:47:54;99957.88;;;24.07;25.18
56270;BME280;42176;43.240;27.880;2023-02-22T08:50:25;99995.53;;;24.66;25.03
56270;BME280;42176;43.240;27.880;2023-02-22T08:52:52;100000.53;;;24.26;25.60
56270;BME280;42176;43.240;27.880;2023-02-22T08:55:22;100006.84;;;24.04;25.72
56270;BME280;42176;43.240;27.880;2023-02-22T08:57:47;100002.91;;;24.08;26.23
56270;BME280;42176;43.240;27.880;2023-02-22T09:00:16;99998.91;;;23.44;26.98
56270;BME280;42176;43.240;27.880;2023-02-22T09:02:41;100006.81;;;23.59;26.62
56270;BME280;42176;43.240;27.880;2023-02-22T09:05:07;100015.31;;;21.95;28.76
56270;BME280;42176;43.240;27.880;2023-02-22T09:07:33;100019.50;;;20.94;30.32
56270;BME280;42176;43.240;27.880;2023-02-22T09:09:58;100022.81;;;19.87;32.24
56270;BME280;42176;43.240;27.880;2023-02-22T09:12:24;100025.47;;;19.13;33.38
56270;BME280;42176;43.240;27.880;2023-02-22T09:14:49;100018.13;;;19.00;33.78
56270;BME280;42176;43.240;27.880;2023-02-22T09:17:15;100006.09;;;17.62;35.82
56270;BME280;42176;43.240;27.880;2023-02-22T09:19:40;100009.69;;;17.10;36.83
56270;BME280;42176;43.240;27.880;2023-02-22T09:22:06;100022.56;;;16.84;37.98
56270;BME280;42176;43.240;27.880;2023-02-22T09:24:31;100030.19;;;17.11;37.44
56270;BME280;42176;43.240;27.880;2023-02-22T09:26:57;100024.44;;;17.18;37.55
56270;BME280;42176;43.240;27.880;2023-02-22T09:29:25;100027.59;;;17.09;37.63
56270;BME280;42176;43.240;27.880;2023-02-22T09:31:52;100036.38;;;16.94;38.06
56270;BME280;42176;43.240;27.880;2023-02-22T09:34:22;100026.66;;;16.91;38.43
56270;BME280;42176;43.240;27.880;2023-02-22T09:36:55;100021.88;;;16.80;38.79
56270;BME280;42176;43.240;27.880;2023-02-22T09:39:22;100008.09;;;16.51;38.87
56270;BME280;42176;43.240;27.880;2023-02-22T09:47:13;100030.69;;;15.47;41.87
56270;BME280;42176;43.240;27.880;2023-02-22T09:49:44;100008.13;;;15.33;42.44
56270;BME280;42176;43.240;27.880;2023-02-22T09:52:17;100026.97;;;15.10;43.24
56270;BME280;42176;43.240;27.880;2023-02-22T09:54:49;100012.44;;;14.95;43.36
56270;BME280;42176;43.240;27.880;2023-02-22T09:57:27;100022.22;;;15.16;43.17
56270;BME280;42176;43.240;27.880;2023-02-22T10:00:06;100025.97;;;15.33;42.68
56270;BME280;42176;43.240;27.880;2023-02-22T10:05:35;100032.66;;;15.00;44.01
56270;BME280;42176;43.240;27.880;2023-02-22T10:08:10;100022.66;;;15.26;43.34
56270;BME280;42176;43.240;27.880;2023-02-22T10:10:47;100020.16;;;15.23;43.29
56270;BME280;42176;43.240;27.880;2023-02-22T10:13:33;100005.31;;;15.16;43.32
56270;BME280;42176;43.240;27.880;2023-02-22T10:16:19;100012.09;;;15.64;42.92
56270;BME280;42176;43.240;27.880;2023-02-22T10:19:03;100005.25;;;15.98;42.14
56270;BME280;42176;43.240;27.880;2023-02-22T10:24:22;100010.94;;;16.10;41.75
56270;BME280;42176;43.240;27.880;2023-02-22T10:26:52;100003.25;;;16.04;42.08
56270;BME280;42176;43.240;27.880;2023-02-22T10:31:57;100006.31;;;15.74;42.69
56270;BME280;42176;43.240;27.880;2023-02-22T10:34:31;100002.78;;;15.33;43.50
56270;BME280;42176;43.240;27.880;2023-02-22T10:39:49;99987.31;;;15.21;43.87
56270;BME280;42176;43.240;27.880;2023-02-22T10:42:19;99986.75;;;15.33;43.99
56270;BME280;42176;43.240;27.880;2023-02-22T10:44:46;99991.16;;;15.14;43.97
56270;BME280;42176;43.240;27.880;2023-02-22T10:47:13;99934.72;;;14.59;44.87
56270;BME280;42176;43.240;27.880;2023-02-22T10:49:42;99987.25;;;14.80;45.75
56270;BME280;42176;43.240;27.880;2023-02-22T10:52:18;99982.91;;;14.55;46.36
56270;BME280;42176;43.240;27.880;2023-02-22T10:54:47;99972.38;;;14.29;47.01
56270;BME280;42176;43.240;27.880;2023-02-22T10:57:19;99978.56;;;14.08;47.59
56270;BME280;42176;43.240;27.880;2023-02-22T10:59:45;99998.00;;;14.10;48.05
56270;BME280;42176;43.240;27.880;2023-02-22T11:02:25;99957.91;;;13.67;47.71
56270;BME280;42176;43.240;27.880;2023-02-22T11:04:55;99985.16;;;14.21;47.54
56270;BME280;42176;43.240;27.880;2023-02-22T11:07:28;99980.13;;;14.36;47.22
56270;BME280;42176;43.240;27.880;2023-02-22T11:10:04;99982.22;;;14.50;47.03
56270;BME280;42176;43.240;27.880;2023-02-22T11:12:35;99976.66;;;14.56;46.71
56270;BME280;42176;43.240;27.880;2023-02-22T11:15:22;99983.50;;;14.63;46.67
56270;BME280;42176;43.240;27.880;2023-02-22T11:17:51;99988.25;;;14.55;47.03
56270;BME280;42176;43.240;27.880;2023-02-22T11:20:28;99979.09;;;14.62;47.14
56270;BME280;42176;43.240;27.880;2023-02-22T11:23:00;99971.94;;;14.40;47.71
56270;BME280;42176;43.240;27.880;2023-02-22T11:25:30;99970.88;;;14.00;49.16
56270;BME280;42176;43.240;27.880;2023-02-22T11:28:09;99990.56;;;13.96;49.38
56270;BME280;42176;43.240;27.880;2023-02-22T11:30:39;99986.16;;;13.71;50.81
56270;BME280;42176;43.240;27.880;2023-02-22T11:33:20;99981.88;;;13.67;52.14
56270;BME280;42176;43.240;27.880;2023-02-22T11:36:01;99997.13;;;13.38;54.22
56270;BME280;42176;43.240;27.880;2023-02-22T11:38:33;100003.75;;;13.51;54.19
56270;BME280;42176;43.240;27.880;2023-02-22T11:41:20;99986.97;;;13.49;54.11
56270;BME280;42176;43.240;27.880;2023-02-22T11:43:50;100007.38;;;13.23;55.09
56270;BME280;42176;43.240;27.880;2023-02-22T11:46:21;99987.22;;;13.16;56.00
56270;BME280;42176;43.240;27.880;2023-02-22T11:48:59;99990.34;;;13.28;56.08
56270;BME280;42176;43.240;27.880;2023-02-22T11:56:47;99991.50;;;12.95;54.97
56270;BME280;42176;43.240;27.880;2023-02-22T12:05:37;99992.34;;;12.42;55.74
56270;BME280;42176;43.240;27.880;2023-02-22T12:17:18;99986.41;;;11.42;56.42
56270;BME280;42176;43.240;27.880;2023-02-22T12:20:20;99995.00;;;11.52;55.94
56270;BME280;42176;43.240;27.880;2023-02-22T12:23:24;99992.00;;;11.63;55.59
56270;BME280;42176;43.240;27.880;2023-02-22T12:26:30;100004.78;;;11.50;55.49
56270;BME280;42176;43.240;27.880;2023-02-22T12:31:53;100009.31;;;11.76;54.49
56270;BME280;42176;43.240;27.880;2023-02-22T12:37:00;100004.34;;;11.65;53.79
56270;BME280;42176;43.240;27.880;2023-02-22T12:41:59;100022.31;;;11.87;53.15
56270;BME280;42176;43.240;27.880;2023-02-22T12:44:46;99999.22;;;11.89;52.53
56270;BME280;42176;43.240;27.880;2023-02-22T12:47:20;100014.03;;;11.98;52.45
56270;BME280;42176;43.240;27.880;2023-02-22T12:50:23;100025.88;;;11.86;52.29
56270;BME280;42176;43.240;27.880;2023-02-22T12:53:03;100026.31;;;11.70;52.03
56270;BME280;42176;43.240;27.880;2023-02-22T12:55:43;100019.97;;;11.45;52.59
56270;BME280;42176;43.240;27.880;2023-02-22T13:00:53;100035.03;;;11.44;52.75
56270;BME280;42176;43.240;27.880;2023-02-22T13:03:35;100035.38;;;11.30;53.62
56270;BME280;42176;43.240;27.880;2023-02-22T13:11:58;100053.38;;;11.19;50.00
56270;BME280;42176;43.240;27.880;2023-02-22T13:19:57;100055.06;;;11.21;46.78
56270;BME280;42176;43.240;27.880;2023-02-22T13:22:36;100048.72;;;11.27;47.34
56270;BME280;42176;43.240;27.880;2023-02-22T13:25:13;100058.91;;;11.09;47.89
56270;BME280;42176;43.240;27.880;2023-02-22T13:28:15;100060.19;;;10.94;48.94
56270;BME280;42176;43.240;27.880;2023-02-22T13:30:43;100060.06;;;10.99;49.39
56270;BME280;42176;43.240;27.880;2023-02-22T13:52:18;100068.25;;;10.90;48.19
56270;BME280;42176;43.240;27.880;2023-02-22T13:57:27;100073.88;;;10.76;47.58
56270;BME280;42176;43.240;27.880;2023-02-22T14:05:51;100080.91;;;10.77;47.05
56270;BME280;42176;43.240;27.880;2023-02-22T14:16:29;100092.13;;;10.90;46.70
56270;BME280;42176;43.240;27.880;2023-02-22T14:19:18;100098.69;;;11.09;45.42
56270;BME280;42176;43.240;27.880;2023-02-22T14:22:23;100103.28;;;11.03;45.37
56270;BME280;42176;43.240;27.880;2023-02-22T14:24:51;100095.50;;;10.95;45.65
56270;BME280;42176;43.240;27.880;2023-02-22T14:27:16;100109.00;;;10.86;45.77
56270;BME280;42176;43.240;27.880;2023-02-22T14:29:58;100112.75;;;10.77;44.89
56270;BME280;42176;43.240;27.880;2023-02-22T14:32:33;100113.47;;;10.84;45.65
56270;BME280;42176;43.240;27.880;2023-02-22T14:35:06;100110.19;;;10.72;46.85
56270;BME280;42176;43.240;27.880;2023-02-22T14:37:40;100104.66;;;10.81;45.63
56270;BME280;42176;43.240;27.880;2023-02-22T14:42:54;100101.94;;;10.45;46.74
56270;BME280;42176;43.240;27.880;2023-02-22T14:45:28;100119.53;;;10.49;47.47
56270;BME280;42176;43.240;27.880;2023-02-22T14:48:05;100102.84;;;10.46;48.07
56270;BME280;42176;43.240;27.880;2023-02-22T14:55:51;100102.16;;;10.34;47.97
56270;BME280;42176;43.240;27.880;2023-02-22T14:58:26;100131.59;;;10.20;48.76
56270;BME280;42176;43.240;27.880;2023-02-22T15:00:53;100118.78;;;9.99;49.30
56270;BME280;42176;43.240;27.880;2023-02-22T15:05:46;100118.59;;;10.08;48.90
56270;BME280;42176;43.240;27.880;2023-02-22T15:08:15;100118.78;;;9.99;48.98
56270;BME280;42176;43.240;27.880;2023-02-22T15:10:49;100128.72;;;9.87;49.46
56270;BME280;42176;43.240;27.880;2023-02-22T15:13:24;100115.66;;;9.77;49.65
56270;BME280;42176;43.240;27.880;2023-02-22T15:16:12;100129.78;;;9.77;49.91
56270;BME280;42176;43.240;27.880;2023-02-22T15:18:55;100121.06;;;9.72;49.86
56270;BME280;42176;43.240;27.880;2023-02-22T15:21:24;100107.91;;;9.66;49.90
56270;BME280;42176;43.240;27.880;2023-02-22T15:24:10;100123.75;;;9.69;49.56
56270;BME280;42176;43.240;27.880;2023-02-22T15:26:45;100132.59;;;9.69;49.78